Time,TemperatureF,DewpointF,PressureIn,WindDirection,WindDirectionDegrees,WindSpeedMPH,WindSpeedGustMPH,Humidity,HourlyPrecipIn,Conditions,Clouds,dailyrainin,SoftwareType,DateUTC
2013-06-20 00:01:00,49.0,46.2,29.53,SW,223,0.0,10.0,90,0.00,,---,0.00,VWS V13.00,2013-06-20 06:01:00,
2013-06-20 00:06:00,48.9,46.1,29.53,WSW,240,7.0,11.0,90,0.00,,---,0.00,VWS V13.00,2013-06-20 06:06:00,
2013-06-20 00:11:00,49.0,46.2,29.54,WSW,240,7.0,10.0,90,0.00,,---,0.00,VWS V13.00,2013-06-20 06:11:00,
2013-06-20 00:16:00,49.1,46.0,29.54,WSW,245,5.0,11.0,89,0.00,,---,0.00,VWS V13.00,2013-06-20 06:16:00,
2013-06-20 00:21:00,49.2,45.8,29.54,WSW,250,5.0,11.0,88,0.00,,---,0.00,VWS V13.00,2013-06-20 06:21:00,
2013-06-20 00:26:00,49.2,45.8,29.55,SW,234,1.0,11.0,88,0.00,,---,0.00,VWS V13.00,2013-06-20 06:26:00,
2013-06-20 00:31:00,49.2,45.8,29.55,SW,235,0.0,11.0,88,0.00,,---,0.00,VWS V13.00,2013-06-20 06:31:00,
2013-06-20 00:36:00,49.2,46.1,29.55,SW,235,0.0,11.0,89,0.00,,---,0.00,VWS V13.00,2013-06-20 06:36:00,
2013-06-20 00:41:00,49.0,45.9,29.56,SW,235,0.0,1.0,89,0.00,,---,0.00,VWS V13.00,2013-06-20 06:41:00,
2013-06-20 00:46:00,48.8,45.7,29.56,SW,236,9.0,9.0,89,0.00,,---,0.00,VWS V13.00,2013-06-20 06:46:00,
2013-06-20 00:51:00,48.6,45.2,29.56,SW,232,2.0,10.0,88,0.00,,---,0.00,VWS V13.00,2013-06-20 06:51:00,
2013-06-20 00:56:00,48.4,45.0,29.55,SW,231,5.0,11.0,88,0.00,,---,0.00,VWS V13.00,2013-06-20 06:56:00,
2013-06-20 01:01:00,48.3,44.9,29.55,SW,232,7.0,11.0,88,0.00,,---,0.00,VWS V13.00,2013-06-20 07:01:00,
2013-06-20 01:06:00,48.2,44.5,29.55,SW,227,9.0,12.0,87,0.00,,---,0.00,VWS V13.00,2013-06-20 07:06:00,
2013-06-20 01:11:00,48.1,43.8,29.58,WSW,238,10.0,12.0,85,0.00,,---,0.00,VWS V13.00,2013-06-20 07:11:00,
2013-06-20 01:16:00,48.3,43.1,29.58,SW,235,4.0,14.0,82,0.00,,---,0.00,VWS V13.00,2013-06-20 07:16:00,
2013-06-20 01:21:00,48.4,42.5,29.58,WSW,240,5.0,14.0,80,0.00,,---,0.00,VWS V13.00,2013-06-20 07:21:00,
2013-06-20 01:26:00,48.5,42.3,29.58,WSW,242,7.0,14.0,79,0.00,,---,0.00,VWS V13.00,2013-06-20 07:26:00,
2013-06-20 01:31:00,48.5,42.3,29.58,WSW,241,11.0,14.0,79,0.00,,---,0.00,VWS V13.00,2013-06-20 07:31:00,
2013-06-20 01:36:00,48.3,41.8,29.58,WSW,240,6.0,14.0,78,0.00,,---,0.00,VWS V13.00,2013-06-20 07:36:00,
2013-06-20 01:41:00,48.2,41.7,29.58,SW,236,6.0,11.0,78,0.00,,---,0.00,VWS V13.00,2013-06-20 07:41:00,
2013-06-20 01:46:00,48.0,41.5,29.58,WSW,237,10.0,11.0,78,0.00,,---,0.00,VWS V13.00,2013-06-20 07:46:00,
2013-06-20 01:51:00,47.8,41.3,29.58,WSW,238,4.0,12.0,78,0.00,,---,0.00,VWS V13.00,2013-06-20 07:51:00,
2013-06-20 01:56:00,47.6,41.1,29.59,SW,234,1.0,12.0,78,0.00,,---,0.00,VWS V13.00,2013-06-20 07:56:00,
2013-06-20 02:01:00,47.4,40.6,29.59,SW,234,7.0,12.0,77,0.00,,---,0.00,VWS V13.00,2013-06-20 08:01:00,
2013-06-20 02:06:00,47.2,40.0,29.59,SW,229,6.0,12.0,76,0.00,,---,0.00,VWS V13.00,2013-06-20 08:06:00,
2013-06-20 02:11:00,47.3,39.8,29.59,SSW,212,11.0,13.0,75,0.00,,---,0.00,VWS V13.00,2013-06-20 08:11:00,
2013-06-20 02:16:00,47.5,39.3,29.59,SW,223,7.0,15.0,73,0.00,,---,0.00,VWS V13.00,2013-06-20 08:16:00,
2013-06-20 02:21:00,47.8,39.6,29.59,SW,229,8.0,15.0,73,0.00,,---,0.00,VWS V13.00,2013-06-20 08:21:00,
2013-06-20 02:26:00,47.8,39.9,29.58,WSW,241,11.0,15.0,74,0.00,,---,0.00,VWS V13.00,2013-06-20 08:26:00,
2013-06-20 02:31:00,47.6,39.7,29.58,WSW,244,16.0,21.0,74,0.00,,---,0.00,VWS V13.00,2013-06-20 08:31:00,
2013-06-20 02:36:00,48.0,39.4,29.58,SW,226,10.0,21.0,72,0.00,,---,0.00,VWS V13.00,2013-06-20 08:36:00,
2013-06-20 02:41:00,48.3,39.3,29.57,WSW,246,14.0,20.0,71,0.00,,---,0.00,VWS V13.00,2013-06-20 08:41:00,
2013-06-20 02:46:00,48.4,39.4,29.57,WSW,238,9.0,20.0,71,0.00,,---,0.00,VWS V13.00,2013-06-20 08:46:00,
2013-06-20 02:51:00,48.4,39.1,29.57,WSW,244,15.0,20.0,70,0.00,,---,0.00,VWS V13.00,2013-06-20 08:51:00,
2013-06-20 02:56:00,48.7,39.0,29.56,WSW,246,19.0,20.0,69,0.00,,---,0.00,VWS V13.00,2013-06-20 08:56:00,
2013-06-20 03:01:00,49.2,38.7,29.56,WSW,245,19.0,20.0,67,0.00,,---,0.00,VWS V13.00,2013-06-20 09:01:00,
2013-06-20 03:06:00,49.3,38.8,29.56,WSW,238,11.0,22.0,67,0.00,,---,0.00,VWS V13.00,2013-06-20 09:06:00,
2013-06-20 03:11:00,49.2,39.1,29.56,SW,220,12.0,18.0,68,0.00,,---,0.00,VWS V13.00,2013-06-20 09:11:00,
2013-06-20 03:16:00,49.0,38.5,29.56,SW,218,14.0,21.0,67,0.00,,---,0.00,VWS V13.00,2013-06-20 09:16:00,
2013-06-20 03:21:00,48.9,38.4,29.56,SW,214,10.0,21.0,67,0.00,,---,0.00,VWS V13.00,2013-06-20 09:21:00,
2013-06-20 03:26:00,49.0,38.2,29.54,WSW,244,11.0,22.0,66,0.00,,---,0.00,VWS V13.00,2013-06-20 09:26:00,
2013-06-20 03:31:00,49.1,38.2,29.54,SW,234,18.0,24.0,66,0.00,,---,0.00,VWS V13.00,2013-06-20 09:31:00,
2013-06-20 03:36:00,49.0,38.2,29.54,SSW,195,12.0,24.0,66,0.00,,---,0.00,VWS V13.00,2013-06-20 09:36:00,
2013-06-20 03:41:00,48.9,38.1,29.55,SW,228,5.0,18.0,66,0.00,,---,0.00,VWS V13.00,2013-06-20 09:41:00,
2013-06-20 03:46:00,48.8,38.0,29.55,SW,216,13.0,18.0,66,0.00,,---,0.00,VWS V13.00,2013-06-20 09:46:00,
2013-06-20 03:51:00,48.8,38.0,29.55,WSW,249,7.0,19.0,66,0.00,,---,0.00,VWS V13.00,2013-06-20 09:51:00,
2013-06-20 03:56:00,48.8,38.0,29.56,SW,233,7.0,20.0,66,0.00,,---,0.00,VWS V13.00,2013-06-20 09:56:00,
2013-06-20 04:01:00,48.7,38.2,29.56,SSW,206,16.0,22.0,67,0.00,,---,0.00,VWS V13.00,2013-06-20 10:01:00,
2013-06-20 04:06:00,48.6,37.8,29.56,SW,234,14.0,22.0,66,0.00,,---,0.00,VWS V13.00,2013-06-20 10:06:00,
2013-06-20 04:11:00,48.7,37.9,29.55,WSW,244,12.0,19.0,66,0.00,,---,0.00,VWS V13.00,2013-06-20 10:11:00,
2013-06-20 04:16:00,48.5,37.7,29.55,WSW,239,11.0,19.0,66,0.00,,---,0.00,VWS V13.00,2013-06-20 10:16:00,
2013-06-20 04:21:00,48.4,37.6,29.55,WSW,248,13.0,19.0,66,0.00,,---,0.00,VWS V13.00,2013-06-20 10:21:00,
2013-06-20 04:26:00,48.5,37.3,29.56,SW,233,11.0,22.0,65,0.00,,---,0.00,VWS V13.00,2013-06-20 10:26:00,
2013-06-20 04:31:00,48.6,37.0,29.56,SW,214,11.0,22.0,64,0.00,,---,0.00,VWS V13.00,2013-06-20 10:31:00,
2013-06-20 04:36:00,48.7,37.1,29.56,SSW,213,11.0,22.0,64,0.00,,---,0.00,VWS V13.00,2013-06-20 10:36:00,
2013-06-20 04:41:00,48.8,36.8,29.55,SW,222,13.0,17.0,63,0.00,,---,0.00,VWS V13.00,2013-06-20 10:41:00,
2013-06-20 04:46:00,49.0,37.0,29.55,SSW,213,9.0,20.0,63,0.00,,---,0.00,VWS V13.00,2013-06-20 10:46:00,
2013-06-20 04:51:00,49.0,36.6,29.55,SSW,211,16.0,23.0,62,0.00,,---,0.00,VWS V13.00,2013-06-20 10:51:00,
2013-06-20 04:56:00,49.2,37.2,29.56,SW,215,9.0,23.0,63,0.00,,---,0.00,VWS V13.00,2013-06-20 10:56:00,
2013-06-20 05:01:00,49.1,36.7,29.56,SW,232,15.0,27.0,62,0.00,,---,0.00,VWS V13.00,2013-06-20 11:01:00,
2013-06-20 05:06:00,49.3,36.4,29.56,WSW,240,11.0,27.0,61,0.00,,---,0.00,VWS V13.00,2013-06-20 11:06:00,
2013-06-20 05:11:00,49.5,36.6,29.55,SSW,207,14.0,25.0,61,0.00,,---,0.00,VWS V13.00,2013-06-20 11:11:00,
2013-06-20 05:15:00,49.6,36.7,29.55,SW,234,20.0,25.0,61,0.00,,---,0.00,VWS V13.00,2013-06-20 11:15:00,
2013-06-20 05:20:00,49.7,36.4,29.55,SW,235,11.0,25.0,60,0.00,,---,0.00,VWS V13.00,2013-06-20 11:20:00,
2013-06-20 05:25:00,49.8,36.1,29.55,SSW,211,15.0,27.0,59,0.00,,---,0.00,VWS V13.00,2013-06-20 11:25:00,
2013-06-20 05:30:00,49.9,36.6,29.55,SW,221,10.0,27.0,60,0.00,,---,0.00,VWS V13.00,2013-06-20 11:30:00,
2013-06-20 05:35:00,49.7,36.8,29.55,SW,217,15.0,27.0,61,0.00,,---,0.00,VWS V13.00,2013-06-20 11:35:00,
2013-06-20 05:40:00,49.5,36.6,29.56,SSW,210,16.0,22.0,61,0.00,,---,0.00,VWS V13.00,2013-06-20 11:40:00,
2013-06-20 05:45:00,49.5,36.6,29.56,SSW,209,11.0,22.0,61,0.00,,---,0.00,VWS V13.00,2013-06-20 11:45:00,
2013-06-20 05:50:00,49.4,37.3,29.56,SW,226,14.0,22.0,63,0.00,,---,0.00,VWS V13.00,2013-06-20 11:50:00,
2013-06-20 05:55:00,49.3,37.2,29.58,SW,230,11.0,22.0,63,0.00,,---,0.00,VWS V13.00,2013-06-20 11:55:00,
2013-06-20 06:00:00,49.4,37.3,29.58,SW,225,10.0,22.0,63,0.00,,---,0.00,VWS V13.00,2013-06-20 12:00:00,
2013-06-20 06:05:00,49.5,37.0,29.58,SW,233,5.0,22.0,62,0.00,,---,0.00,VWS V13.00,2013-06-20 12:05:00,
2013-06-20 06:10:00,49.5,37.4,29.59,SSW,211,9.0,15.0,63,0.00,,---,0.00,VWS V13.00,2013-06-20 12:10:00,
2013-06-20 06:15:00,49.6,37.1,29.59,SW,230,6.0,17.0,62,0.00,,---,0.00,VWS V13.00,2013-06-20 12:15:00,
2013-06-20 06:20:00,49.8,36.9,29.59,WSW,242,7.0,17.0,61,0.00,,---,0.00,VWS V13.00,2013-06-20 12:20:00,
2013-06-20 06:25:00,50.0,37.5,29.59,SW,232,6.0,17.0,62,0.00,,---,0.00,VWS V13.00,2013-06-20 12:25:00,
2013-06-20 06:30:00,50.2,37.3,29.59,SSW,195,1.0,17.0,61,0.00,,---,0.00,VWS V13.00,2013-06-20 12:30:00,
2013-06-20 06:35:00,50.4,37.5,29.59,SSW,207,0.0,17.0,61,0.00,,---,0.00,VWS V13.00,2013-06-20 12:35:00,
2013-06-20 06:40:00,50.6,37.7,29.60,South,186,11.0,12.0,61,0.00,,---,0.00,VWS V13.00,2013-06-20 12:40:00,
2013-06-20 06:45:00,50.9,37.5,29.60,WSW,238,9.0,13.0,60,0.00,,---,0.00,VWS V13.00,2013-06-20 12:45:00,
2013-06-20 06:50:00,51.2,37.8,29.60,SW,215,5.0,16.0,60,0.00,,---,0.00,VWS V13.00,2013-06-20 12:50:00,
2013-06-20 06:55:00,51.5,37.2,29.64,SW,221,13.0,18.0,58,0.00,,---,0.00,VWS V13.00,2013-06-20 12:55:00,
2013-06-20 07:00:00,51.8,37.9,29.64,WSW,249,14.0,19.0,59,0.00,,---,0.00,VWS V13.00,2013-06-20 13:00:00,
2013-06-20 07:05:00,52.1,37.3,29.64,WSW,246,11.0,19.0,57,0.00,,---,0.00,VWS V13.00,2013-06-20 13:05:00,
2013-06-20 07:10:00,52.3,38.0,29.65,WSW,241,16.0,17.0,58,0.00,,---,0.00,VWS V13.00,2013-06-20 13:10:00,
2013-06-20 07:15:00,52.6,37.8,29.65,SW,233,15.0,23.0,57,0.00,,---,0.00,VWS V13.00,2013-06-20 13:15:00,
2013-06-20 07:20:00,52.8,37.5,29.65,WSW,241,14.0,23.0,56,0.00,,---,0.00,VWS V13.00,2013-06-20 13:20:00,
2013-06-20 07:25:00,53.0,37.7,29.65,SW,232,11.0,23.0,56,0.00,,---,0.00,VWS V13.00,2013-06-20 13:25:00,
2013-06-20 07:30:00,53.3,38.0,29.65,SW,223,16.0,23.0,56,0.00,,---,0.00,VWS V13.00,2013-06-20 13:30:00,
2013-06-20 07:35:00,53.5,37.8,29.65,SW,229,19.0,24.0,55,0.00,,---,0.00,VWS V13.00,2013-06-20 13:35:00,
2013-06-20 07:40:00,53.7,37.9,29.66,SW,219,15.0,23.0,55,0.00,,---,0.00,VWS V13.00,2013-06-20 13:40:00,
2013-06-20 07:45:00,54.0,38.2,29.66,WSW,237,18.0,23.0,55,0.00,,---,0.00,VWS V13.00,2013-06-20 13:45:00,
2013-06-20 07:50:00,54.2,37.9,29.66,WSW,240,12.0,23.0,54,0.00,,---,0.00,VWS V13.00,2013-06-20 13:50:00,
2013-06-20 07:55:00,54.4,38.1,29.70,SW,236,19.0,23.0,54,0.00,,---,0.00,VWS V13.00,2013-06-20 13:55:00,
2013-06-20 08:00:00,54.5,37.7,29.70,WSW,238,13.0,23.0,53,0.00,,---,0.00,VWS V13.00,2013-06-20 14:00:00,
2013-06-20 08:05:00,54.8,37.5,29.70,WSW,238,18.0,23.0,52,0.00,,---,0.00,VWS V13.00,2013-06-20 14:05:00,
2013-06-20 08:10:00,54.9,39.0,29.72,SW,231,18.0,22.0,55,0.00,,---,0.00,VWS V13.00,2013-06-20 14:10:00,
2013-06-20 08:15:00,55.0,38.2,29.72,WSW,248,20.0,27.0,53,0.00,,---,0.00,VWS V13.00,2013-06-20 14:15:00,
2013-06-20 08:20:00,55.0,39.2,29.72,WSW,244,22.0,27.0,55,0.00,,---,0.00,VWS V13.00,2013-06-20 14:20:00,
2013-06-20 08:25:00,55.0,38.2,29.72,WSW,241,10.0,27.0,53,0.00,,---,0.00,VWS V13.00,2013-06-20 14:25:00,
2013-06-20 08:30:00,55.2,39.3,29.72,WSW,237,14.0,27.0,55,0.00,,---,0.00,VWS V13.00,2013-06-20 14:30:00,
2013-06-20 08:35:00,55.4,39.0,29.72,SW,236,12.0,27.0,54,0.00,,---,0.00,VWS V13.00,2013-06-20 14:35:00,
2013-06-20 08:40:00,55.7,39.3,29.71,WSW,246,19.0,21.0,54,0.00,,---,0.00,VWS V13.00,2013-06-20 14:40:00,
2013-06-20 08:45:00,55.8,38.0,29.71,SW,221,19.0,28.0,51,0.00,,---,0.00,VWS V13.00,2013-06-20 14:45:00,
2013-06-20 08:50:00,55.9,38.5,29.71,WSW,246,20.0,30.0,52,0.00,,---,0.00,VWS V13.00,2013-06-20 14:50:00,
2013-06-20 08:55:00,56.0,38.6,29.72,SW,223,23.0,30.0,52,0.00,,---,0.00,VWS V13.00,2013-06-20 14:55:00,
2013-06-20 09:00:00,56.2,39.3,29.72,WSW,244,19.0,30.0,53,0.00,,---,0.00,VWS V13.00,2013-06-20 15:00:00,
2013-06-20 09:05:00,56.5,38.6,29.72,WSW,250,21.0,30.0,51,0.00,,---,0.00,VWS V13.00,2013-06-20 15:05:00,
2013-06-20 09:10:00,56.6,39.2,29.71,WSW,250,26.0,27.0,52,0.00,,---,0.00,VWS V13.00,2013-06-20 15:10:00,
2013-06-20 09:15:00,56.7,38.3,29.71,WSW,241,22.0,27.0,50,0.00,,---,0.00,VWS V13.00,2013-06-20 15:15:00,
2013-06-20 09:20:00,56.8,38.4,29.71,WSW,244,13.0,27.0,50,0.00,,---,0.00,VWS V13.00,2013-06-20 15:20:00,
2013-06-20 09:25:00,56.8,38.4,29.72,WSW,242,22.0,27.0,50,0.00,,---,0.00,VWS V13.00,2013-06-20 15:25:00,
2013-06-20 09:30:00,56.9,38.0,29.72,WSW,244,17.0,27.0,49,0.00,,---,0.00,VWS V13.00,2013-06-20 15:30:00,
2013-06-20 09:35:00,57.1,38.1,29.72,WSW,248,15.0,27.0,49,0.00,,---,0.00,VWS V13.00,2013-06-20 15:35:00,
2013-06-20 09:40:00,57.5,39.0,29.73,SW,236,15.0,24.0,50,0.00,,---,0.00,VWS V13.00,2013-06-20 15:40:00,
2013-06-20 09:45:00,57.6,39.1,29.73,WSW,244,16.0,24.0,50,0.00,,---,0.00,VWS V13.00,2013-06-20 15:45:00,
2013-06-20 09:50:00,57.7,38.2,29.73,WSW,245,16.0,24.0,48,0.00,,---,0.00,VWS V13.00,2013-06-20 15:50:00,
2013-06-20 09:55:00,58.0,38.4,29.73,WSW,257,15.0,24.0,48,0.00,,---,0.00,VWS V13.00,2013-06-20 15:55:00,
2013-06-20 10:00:00,58.2,38.6,29.73,WSW,241,17.0,24.0,48,0.00,,---,0.00,VWS V13.00,2013-06-20 16:00:00,
2013-06-20 10:05:00,58.4,39.3,29.73,WSW,250,17.0,24.0,49,0.00,,---,0.00,VWS V13.00,2013-06-20 16:05:00,
2013-06-20 10:10:00,58.7,39.1,29.73,SW,236,17.0,27.0,48,0.00,,---,0.00,VWS V13.00,2013-06-20 16:10:00,
2013-06-20 10:15:00,58.9,38.2,29.73,SSW,212,19.0,30.0,46,0.00,,---,0.00,VWS V13.00,2013-06-20 16:15:00,
2013-06-20 10:20:00,58.8,39.2,29.73,WSW,249,16.0,30.0,48,0.00,,---,0.00,VWS V13.00,2013-06-20 16:20:00,
2013-06-20 10:25:00,59.0,40.9,29.73,WSW,241,13.0,30.0,51,0.00,,---,0.00,VWS V13.00,2013-06-20 16:25:00,
2013-06-20 10:30:00,59.2,37.9,29.73,WSW,238,10.0,30.0,45,0.00,,---,0.00,VWS V13.00,2013-06-20 16:30:00,
2013-06-20 10:35:00,59.7,41.6,29.73,WSW,248,12.0,30.0,51,0.00,,---,0.00,VWS V13.00,2013-06-20 16:35:00,
2013-06-20 10:40:00,59.8,39.0,29.72,WSW,247,20.0,24.0,46,0.00,,---,0.00,VWS V13.00,2013-06-20 16:40:00,
2013-06-20 10:45:00,59.7,40.0,29.72,WSW,242,14.0,28.0,48,0.00,,---,0.00,VWS V13.00,2013-06-20 16:45:00,
2013-06-20 10:50:00,59.7,38.3,29.72,SW,229,20.0,32.0,45,0.00,,---,0.00,VWS V13.00,2013-06-20 16:50:00,
2013-06-20 10:55:00,59.9,37.4,29.74,WSW,245,19.0,32.0,43,0.00,,---,0.00,VWS V13.00,2013-06-20 16:55:00,
2013-06-20 11:00:00,60.1,38.1,29.74,WSW,237,20.0,32.0,44,0.00,,---,0.00,VWS V13.00,2013-06-20 17:00:00,
2013-06-20 11:05:00,60.3,37.7,29.74,WSW,254,17.0,32.0,43,0.00,,---,0.00,VWS V13.00,2013-06-20 17:05:00,
2013-06-20 11:10:00,60.6,38.6,29.75,West,271,17.0,25.0,44,0.00,,---,0.00,VWS V13.00,2013-06-20 17:10:00,
2013-06-20 11:15:00,60.7,39.3,29.75,SSW,209,14.0,29.0,45,0.00,,---,0.00,VWS V13.00,2013-06-20 17:15:00,
2013-06-20 11:20:00,60.9,39.4,29.75,SW,236,24.0,29.0,45,0.00,,---,0.00,VWS V13.00,2013-06-20 17:20:00,
2013-06-20 11:25:00,60.9,37.7,29.74,WSW,240,26.0,29.0,42,0.00,,---,0.00,VWS V13.00,2013-06-20 17:25:00,
2013-06-20 11:30:00,60.8,38.2,29.74,WSW,245,19.0,29.0,43,0.00,,---,0.00,VWS V13.00,2013-06-20 17:30:00,
2013-06-20 11:35:00,61.1,39.6,29.74,WSW,244,17.0,29.0,45,0.00,,---,0.00,VWS V13.00,2013-06-20 17:35:00,
2013-06-20 11:40:00,61.5,38.2,29.74,SW,232,15.0,23.0,42,0.00,,---,0.00,VWS V13.00,2013-06-20 17:40:00,
2013-06-20 11:45:00,61.4,39.9,29.74,WSW,244,14.0,23.0,45,0.00,,---,0.00,VWS V13.00,2013-06-20 17:45:00,
2013-06-20 11:50:00,61.7,38.4,29.74,WSW,240,20.0,27.0,42,0.00,,---,0.00,VWS V13.00,2013-06-20 17:50:00,
2013-06-20 11:55:00,61.6,37.1,29.75,WSW,245,17.0,27.0,40,0.00,,---,0.00,VWS V13.00,2013-06-20 17:55:00,
2013-06-20 12:00:00,61.6,38.3,29.75,West,265,19.0,27.0,42,0.00,,---,0.00,VWS V13.00,2013-06-20 18:00:00,
2013-06-20 12:05:00,60.9,39.4,29.75,WSW,244,13.0,29.0,45,0.00,,---,0.00,VWS V13.00,2013-06-20 18:05:00,
2013-06-20 12:10:00,61.4,39.9,29.75,WSW,248,12.0,22.0,45,0.00,,---,0.00,VWS V13.00,2013-06-20 18:10:00,
2013-06-20 12:15:00,61.4,41.0,29.75,WSW,238,18.0,23.0,47,0.00,,---,0.00,VWS V13.00,2013-06-20 18:15:00,
2013-06-20 12:20:00,62.5,37.9,29.75,WSW,252,21.0,26.0,40,0.00,,---,0.00,VWS V13.00,2013-06-20 18:20:00,
2013-06-20 12:25:00,62.4,39.0,29.74,WSW,245,14.0,26.0,42,0.00,,---,0.00,VWS V13.00,2013-06-20 18:25:00,
2013-06-20 12:30:00,62.2,37.0,29.74,WSW,254,19.0,26.0,39,0.00,,---,0.00,VWS V13.00,2013-06-20 18:30:00,
2013-06-20 12:35:00,62.0,41.6,29.74,WSW,238,15.0,26.0,47,0.00,,---,0.00,VWS V13.00,2013-06-20 18:35:00,
2013-06-20 12:40:00,62.7,38.7,29.75,WSW,246,19.0,25.0,41,0.00,,---,0.00,VWS V13.00,2013-06-20 18:40:00,
2013-06-20 12:45:00,63.3,41.6,29.75,WSW,244,18.0,25.0,45,0.00,,---,0.00,VWS V13.00,2013-06-20 18:45:00,
2013-06-20 12:50:00,63.3,40.5,29.75,WNW,286,20.0,25.0,43,0.00,,---,0.00,VWS V13.00,2013-06-20 18:50:00,
2013-06-20 12:55:00,63.4,39.3,29.75,West,263,11.0,25.0,41,0.00,,---,0.00,VWS V13.00,2013-06-20 18:55:00,
2013-06-20 13:00:00,63.5,40.6,29.75,WSW,241,15.0,25.0,43,0.00,,---,0.00,VWS V13.00,2013-06-20 19:00:00,
2013-06-20 13:05:00,62.6,38.0,29.75,WSW,249,20.0,25.0,40,0.00,,---,0.00,VWS V13.00,2013-06-20 19:05:00,
2013-06-20 13:10:00,61.9,39.8,29.75,SW,223,16.0,24.0,44,0.00,,---,0.00,VWS V13.00,2013-06-20 19:10:00,
2013-06-20 13:15:00,61.0,37.2,29.75,West,261,18.0,24.0,41,0.00,,---,0.00,VWS V13.00,2013-06-20 19:15:00,
2013-06-20 13:20:00,60.5,39.6,29.75,WSW,238,13.0,24.0,46,0.00,,---,0.00,VWS V13.00,2013-06-20 19:20:00,
2013-06-20 13:25:00,61.1,39.0,29.76,West,263,17.0,24.0,44,0.00,,---,0.00,VWS V13.00,2013-06-20 19:25:00,
2013-06-20 13:30:00,62.7,39.3,29.76,WSW,237,15.0,24.0,42,0.00,,---,0.00,VWS V13.00,2013-06-20 19:30:00,
2013-06-20 13:35:00,63.0,39.6,29.76,West,274,11.0,24.0,42,0.00,,---,0.00,VWS V13.00,2013-06-20 19:35:00,
2013-06-20 13:40:00,63.2,39.8,29.76,WSW,249,13.0,23.0,42,0.00,,---,0.00,VWS V13.00,2013-06-20 19:40:00,
2013-06-20 13:45:00,63.3,38.6,29.76,WSW,243,16.0,24.0,40,0.00,,---,0.00,VWS V13.00,2013-06-20 19:45:00,
2013-06-20 13:50:00,62.3,37.7,29.76,West,261,11.0,24.0,40,0.00,,---,0.00,VWS V13.00,2013-06-20 19:50:00,
2013-06-20 13:55:00,62.3,38.3,29.77,WSW,238,20.0,24.0,41,0.00,,---,0.00,VWS V13.00,2013-06-20 19:55:00,
2013-06-20 14:00:00,62.3,38.3,29.77,West,265,18.0,24.0,41,0.00,,---,0.00,VWS V13.00,2013-06-20 20:00:00,
2013-06-20 14:05:00,63.0,39.6,29.77,WSW,245,13.0,24.0,42,0.00,,---,0.00,VWS V13.00,2013-06-20 20:05:00,
2013-06-20 14:10:00,64.0,40.5,29.76,WSW,249,13.0,20.0,42,0.00,,---,0.00,VWS V13.00,2013-06-20 20:10:00,
2013-06-20 14:15:00,64.4,38.3,29.76,WSW,245,17.0,23.0,38,0.00,,---,0.00,VWS V13.00,2013-06-20 20:15:00,
2013-06-20 14:20:00,63.4,41.1,29.76,WSW,249,13.0,23.0,44,0.00,,---,0.00,VWS V13.00,2013-06-20 20:20:00,
2013-06-20 14:25:00,62.5,41.5,29.77,West,261,13.0,25.0,46,0.00,,---,0.00,VWS V13.00,2013-06-20 20:25:00,
2013-06-20 14:30:00,62.8,40.0,29.77,WSW,246,18.0,25.0,43,0.00,,---,0.00,VWS V13.00,2013-06-20 20:30:00,
2013-06-20 14:35:00,61.8,39.7,29.77,West,270,12.0,27.0,44,0.00,,---,0.00,VWS V13.00,2013-06-20 20:35:00,
2013-06-20 14:40:00,61.5,40.0,29.78,West,275,20.0,23.0,45,0.00,,---,0.00,VWS V13.00,2013-06-20 20:40:00,
2013-06-20 14:45:00,62.5,42.0,29.78,West,269,26.0,26.0,47,0.00,,---,0.00,VWS V13.00,2013-06-20 20:45:00,
2013-06-20 14:50:00,63.0,42.5,29.78,West,269,15.0,26.0,47,0.00,,---,0.00,VWS V13.00,2013-06-20 20:50:00,
2013-06-20 14:55:00,63.0,43.6,29.78,West,271,23.0,26.0,49,0.00,,---,0.00,VWS V13.00,2013-06-20 20:55:00,
2013-06-20 15:00:00,61.9,41.5,29.78,WSW,253,18.0,26.0,47,0.00,,---,0.00,VWS V13.00,2013-06-20 21:00:00,
2013-06-20 15:05:00,60.7,40.9,29.78,West,271,17.0,26.0,48,0.00,,---,0.00,VWS V13.00,2013-06-20 21:05:00,
2013-06-20 15:10:00,60.4,41.2,29.79,WNW,284,15.0,21.0,49,0.00,,---,0.00,VWS V13.00,2013-06-20 21:10:00,
2013-06-20 15:15:00,60.4,40.6,29.79,West,264,20.0,29.0,48,0.00,,---,0.00,VWS V13.00,2013-06-20 21:15:00,
2013-06-20 15:20:00,60.7,40.9,29.79,West,281,20.0,29.0,48,0.00,,---,0.00,VWS V13.00,2013-06-20 21:20:00,
2013-06-20 15:25:00,61.1,41.8,29.79,West,269,21.0,29.0,49,0.00,,---,0.00,VWS V13.00,2013-06-20 21:25:00,
2013-06-20 15:30:00,61.6,41.7,29.79,West,267,16.0,29.0,48,0.00,,---,0.00,VWS V13.00,2013-06-20 21:30:00,
2013-06-20 15:35:00,62.3,44.0,29.79,West,274,16.0,29.0,51,0.00,,---,0.00,VWS V13.00,2013-06-20 21:35:00,
2013-06-20 15:40:00,62.6,41.5,29.78,West,267,14.0,21.0,46,0.00,,---,0.00,VWS V13.00,2013-06-20 21:40:00,
2013-06-20 15:45:00,62.7,42.8,29.78,WNW,290,17.0,22.0,48,0.00,,---,0.00,VWS V13.00,2013-06-20 21:45:00,
2013-06-20 15:50:00,62.7,42.8,29.78,West,280,19.0,25.0,48,0.00,,---,0.00,VWS V13.00,2013-06-20 21:50:00,